sensor_id;sensor_type;location;lat;lon;timestamp;P1;durP1;ratioP1;P2;durP2;ratioP2
77571;SDS011;67214;47.454;18.966;2023-04-30T00:01:36;9.48;;;8.13;;
77571;SDS011;67214;47.454;18.966;2023-04-30T00:04:04;11.65;;;8.73;;
77571;SDS011;67214;47.454;18.966;2023-04-30T00:06:31;16.55;;;9.43;;
77571;SDS011;67214;47.454;18.966;2023-04-30T00:08:59;13.50;;;8.38;;
77571;SDS011;67214;47.454;18.966;2023-04-30T00:11:26;10.50;;;8.43;;
77571;SDS011;67214;47.454;18.966;2023-04-30T00:13:54;10.08;;;8.35;;
77571;SDS011;67214;47.454;18.966;2023-04-30T00:16:21;15.32;;;9.33;;
77571;SDS011;67214;47.454;18.966;2023-04-30T00:18:49;10.88;;;7.87;;
77571;SDS011;67214;47.454;18.966;2023-04-30T00:21:16;10.00;;;8.03;;
77571;SDS011;67214;47.454;18.966;2023-04-30T00:23:43;14.23;;;8.60;;
77571;SDS011;67214;47.454;18.966;2023-04-30T00:26:11;9.28;;;8.30;;
77571;SDS011;67214;47.454;18.966;2023-04-30T00:28:38;16.48;;;8.85;;
77571;SDS011;67214;47.454;18.966;2023-04-30T00:31:06;10.82;;;8.03;;
77571;SDS011;67214;47.454;18.966;2023-04-30T00:33:34;14.68;;;9.13;;
77571;SDS011;67214;47.454;18.966;2023-04-30T00:36:01;17.42;;;9.90;;
77571;SDS011;67214;47.454;18.966;2023-04-30T00:38:29;11.97;;;8.20;;
77571;SDS011;67214;47.454;18.966;2023-04-30T00:40:56;13.22;;;8.80;;
77571;SDS011;67214;47.454;18.966;2023-04-30T00:43:24;11.63;;;8.45;;
77571;SDS011;67214;47.454;18.966;2023-04-30T00:45:51;13.48;;;8.80;;
77571;SDS011;67214;47.454;18.966;2023-04-30T00:48:19;11.40;;;8.45;;
77571;SDS011;67214;47.454;18.966;2023-04-30T00:50:47;11.60;;;7.95;;
77571;SDS011;67214;47.454;18.966;2023-04-30T00:53:14;10.90;;;7.70;;
77571;SDS011;67214;47.454;18.966;2023-04-30T00:55:43;11.85;;;9.15;;
77571;SDS011;67214;47.454;18.966;2023-04-30T00:58:12;11.18;;;8.50;;
77571;SDS011;67214;47.454;18.966;2023-04-30T01:00:40;11.63;;;8.28;;
77571;SDS011;67214;47.454;18.966;2023-04-30T01:03:09;14.18;;;8.03;;
77571;SDS011;67214;47.454;18.966;2023-04-30T01:05:37;12.25;;;8.78;;
77571;SDS011;67214;47.454;18.966;2023-04-30T01:08:05;11.38;;;8.73;;
77571;SDS011;67214;47.454;18.966;2023-04-30T01:13:33;12.18;;;9.23;;
77571;SDS011;67214;47.454;18.966;2023-04-30T01:15:59;11.20;;;9.18;;
77571;SDS011;67214;47.454;18.966;2023-04-30T01:18:34;12.15;;;9.15;;
77571;SDS011;67214;47.454;18.966;2023-04-30T01:21:05;14.58;;;10.15;;
77571;SDS011;67214;47.454;18.966;2023-04-30T01:23:54;12.58;;;9.30;;
77571;SDS011;67214;47.454;18.966;2023-04-30T01:28:59;14.47;;;9.70;;
77571;SDS011;67214;47.454;18.966;2023-04-30T01:31:29;13.30;;;9.75;;
77571;SDS011;67214;47.454;18.966;2023-04-30T01:33:57;14.45;;;10.88;;
77571;SDS011;67214;47.454;18.966;2023-04-30T01:39:18;11.38;;;10.05;;
77571;SDS011;67214;47.454;18.966;2023-04-30T01:41:53;13.65;;;10.35;;
77571;SDS011;67214;47.454;18.966;2023-04-30T01:47:11;14.00;;;10.38;;
77571;SDS011;67214;47.454;18.966;2023-04-30T01:55:11;11.28;;;9.58;;
77571;SDS011;67214;47.454;18.966;2023-04-30T01:57:56;13.88;;;9.68;;
77571;SDS011;67214;47.454;18.966;2023-04-30T02:00:26;12.23;;;9.68;;
77571;SDS011;67214;47.454;18.966;2023-04-30T02:02:58;16.07;;;9.35;;
77571;SDS011;67214;47.454;18.966;2023-04-30T02:05:26;11.10;;;9.35;;
77571;SDS011;67214;47.454;18.966;2023-04-30T02:07:53;12.60;;;10.10;;
77571;SDS011;67214;47.454;18.966;2023-04-30T02:10:22;9.98;;;8.80;;
77571;SDS011;67214;47.454;18.966;2023-04-30T02:12:51;12.00;;;9.18;;
77571;SDS011;67214;47.454;18.966;2023-04-30T02:15:19;12.20;;;9.05;;
77571;SDS011;67214;47.454;18.966;2023-04-30T02:17:46;15.32;;;9.85;;
77571;SDS011;67214;47.454;18.966;2023-04-30T02:20:14;10.90;;;9.00;;
77571;SDS011;67214;47.454;18.966;2023-04-30T02:22:41;12.35;;;9.48;;
77571;SDS011;67214;47.454;18.966;2023-04-30T02:25:09;14.07;;;9.30;;
77571;SDS011;67214;47.454;18.966;2023-04-30T02:27:37;12.53;;;9.18;;
77571;SDS011;67214;47.454;18.966;2023-04-30T02:30:04;12.50;;;8.50;;
77571;SDS011;67214;47.454;18.966;2023-04-30T02:32:32;9.18;;;8.05;;
77571;SDS011;67214;47.454;18.966;2023-04-30T02:35:00;11.35;;;8.80;;
77571;SDS011;67214;47.454;18.966;2023-04-30T02:37:28;9.03;;;7.92;;
77571;SDS011;67214;47.454;18.966;2023-04-30T02:39:55;14.55;;;9.58;;
77571;SDS011;67214;47.454;18.966;2023-04-30T02:42:23;10.98;;;9.15;;
77571;SDS011;67214;47.454;18.966;2023-04-30T02:44:50;13.70;;;10.40;;
77571;SDS011;67214;47.454;18.966;2023-04-30T02:47:18;16.55;;;10.95;;
77571;SDS011;67214;47.454;18.966;2023-04-30T02:49:45;14.95;;;10.03;;
77571;SDS011;67214;47.454;18.966;2023-04-30T02:52:13;17.05;;;10.63;;
77571;SDS011;67214;47.454;18.966;2023-04-30T02:54:40;14.47;;;10.45;;
77571;SDS011;67214;47.454;18.966;2023-04-30T02:57:08;14.03;;;9.95;;
77571;SDS011;67214;47.454;18.966;2023-04-30T02:59:35;12.80;;;10.65;;
77571;SDS011;67214;47.454;18.966;2023-04-30T03:02:03;14.20;;;10.03;;
77571;SDS011;67214;47.454;18.966;2023-04-30T03:04:30;13.90;;;10.32;;
77571;SDS011;67214;47.454;18.966;2023-04-30T03:06:58;12.68;;;10.25;;
77571;SDS011;67214;47.454;18.966;2023-04-30T03:09:26;14.93;;;11.40;;
77571;SDS011;67214;47.454;18.966;2023-04-30T03:11:53;14.65;;;11.55;;
77571;SDS011;67214;47.454;18.966;2023-04-30T03:14:21;16.48;;;11.18;;
77571;SDS011;67214;47.454;18.966;2023-04-30T03:16:48;15.28;;;11.00;;
77571;SDS011;67214;47.454;18.966;2023-04-30T03:19:16;14.30;;;11.65;;
77571;SDS011;67214;47.454;18.966;2023-04-30T03:21:45;16.48;;;11.40;;
77571;SDS011;67214;47.454;18.966;2023-04-30T03:24:12;15.00;;;11.63;;
77571;SDS011;67214;47.454;18.966;2023-04-30T03:26:40;14.38;;;11.10;;
77571;SDS011;67214;47.454;18.966;2023-04-30T03:29:08;13.00;;;9.58;;
77571;SDS011;67214;47.454;18.966;2023-04-30T03:31:35;14.68;;;10.18;;
77571;SDS011;67214;47.454;18.966;2023-04-30T03:34:02;13.98;;;10.18;;
77571;SDS011;67214;47.454;18.966;2023-04-30T03:36:30;15.50;;;11.35;;
77571;SDS011;67214;47.454;18.966;2023-04-30T03:38:58;18.80;;;12.80;;
77571;SDS011;67214;47.454;18.966;2023-04-30T03:41:26;19.77;;;15.13;;
77571;SDS011;67214;47.454;18.966;2023-04-30T03:43:53;18.42;;;15.93;;
77571;SDS011;67214;47.454;18.966;2023-04-30T03:46:21;20.68;;;16.77;;
77571;SDS011;67214;47.454;18.966;2023-04-30T03:48:48;20.95;;;18.57;;
77571;SDS011;67214;47.454;18.966;2023-04-30T03:51:17;24.70;;;19.32;;
77571;SDS011;67214;47.454;18.966;2023-04-30T03:53:46;25.02;;;20.48;;
77571;SDS011;67214;47.454;18.966;2023-04-30T03:56:14;25.82;;;20.43;;
77571;SDS011;67214;47.454;18.966;2023-04-30T03:58:41;26.37;;;20.17;;
77571;SDS011;67214;47.454;18.966;2023-04-30T04:01:09;23.87;;;19.90;;
77571;SDS011;67214;47.454;18.966;2023-04-30T04:03:36;25.17;;;19.42;;
77571;SDS011;67214;47.454;18.966;2023-04-30T04:06:04;25.72;;;20.35;;
77571;SDS011;67214;47.454;18.966;2023-04-30T04:08:32;25.57;;;18.92;;
77571;SDS011;67214;47.454;18.966;2023-04-30T04:10:59;28.35;;;21.75;;
77571;SDS011;67214;47.454;18.966;2023-04-30T04:13:27;24.23;;;20.02;;
77571;SDS011;67214;47.454;18.966;2023-04-30T04:15:54;26.68;;;20.88;;
77571;SDS011;67214;47.454;18.966;2023-04-30T04:18:22;28.83;;;22.65;;
77571;SDS011;67214;47.454;18.966;2023-04-30T04:20:49;27.75;;;22.58;;
77571;SDS011;67214;47.454;18.966;2023-04-30T04:23:17;31.17;;;24.35;;
77571;SDS011;67214;47.454;18.966;2023-04-30T04:25:44;26.93;;;22.62;;
77571;SDS011;67214;47.454;18.966;2023-04-30T04:28:13;27.48;;;23.20;;
77571;SDS011;67214;47.454;18.966;2023-04-30T04:30:41;26.90;;;23.05;;
77571;SDS011;67214;47.454;18.966;2023-04-30T04:33:09;27.07;;;22.85;;
77571;SDS011;67214;47.454;18.966;2023-04-30T04:35:36;27.48;;;22.80;;
77571;SDS011;67214;47.454;18.966;2023-04-30T04:38:04;28.23;;;23.57;;
77571;SDS011;67214;47.454;18.966;2023-04-30T04:40:32;28.65;;;23.95;;
77571;SDS011;67214;47.454;18.966;2023-04-30T04:43:00;24.65;;;21.93;;
77571;SDS011;67214;47.454;18.966;2023-04-30T04:45:27;26.73;;;21.85;;
77571;SDS011;67214;47.454;18.966;2023-04-30T04:47:56;31.68;;;24.37;;
77571;SDS011;67214;47.454;18.966;2023-04-30T04:50:23;25.48;;;22.37;;
77571;SDS011;67214;47.454;18.966;2023-04-30T04:52:51;24.92;;;21.82;;
77571;SDS011;67214;47.454;18.966;2023-04-30T04:55:18;27.80;;;21.93;;
77571;SDS011;67214;47.454;18.966;2023-04-30T04:57:45;25.12;;;21.17;;
77571;SDS011;67214;47.454;18.966;2023-04-30T05:00:13;24.82;;;21.77;;
77571;SDS011;67214;47.454;18.966;2023-04-30T05:02:42;26.95;;;22.02;;
77571;SDS011;67214;47.454;18.966;2023-04-30T05:05:09;23.87;;;21.30;;
77571;SDS011;67214;47.454;18.966;2023-04-30T05:07:37;23.92;;;20.65;;
77571;SDS011;67214;47.454;18.966;2023-04-30T05:10:05;24.35;;;20.52;;
77571;SDS011;67214;47.454;18.966;2023-04-30T05:12:33;24.30;;;20.08;;
77571;SDS011;67214;47.454;18.966;2023-04-30T05:15:00;25.52;;;20.65;;
77571;SDS011;67214;47.454;18.966;2023-04-30T05:17:29;22.82;;;19.55;;
77571;SDS011;67214;47.454;18.966;2023-04-30T05:19:56;21.95;;;19.57;;
77571;SDS011;67214;47.454;18.966;2023-04-30T05:22:24;22.82;;;20.02;;
77571;SDS011;67214;47.454;18.966;2023-04-30T05:24:51;21.00;;;18.57;;
77571;SDS011;67214;47.454;18.966;2023-04-30T05:27:19;21.55;;;17.70;;
77571;SDS011;67214;47.454;18.966;2023-04-30T05:29:46;21.00;;;18.62;;
77571;SDS011;67214;47.454;18.966;2023-04-30T05:32:14;18.70;;;16.70;;
77571;SDS011;67214;47.454;18.966;2023-04-30T05:34:41;20.62;;;17.57;;
77571;SDS011;67214;47.454;18.966;2023-04-30T05:37:08;26.02;;;18.85;;
77571;SDS011;67214;47.454;18.966;2023-04-30T05:39:38;20.77;;;17.82;;
77571;SDS011;67214;47.454;18.966;2023-04-30T05:42:05;22.52;;;16.77;;
77571;SDS011;67214;47.454;18.966;2023-04-30T05:44:33;19.23;;;16.75;;
77571;SDS011;67214;47.454;18.966;2023-04-30T05:47:00;18.65;;;16.57;;
77571;SDS011;67214;47.454;18.966;2023-04-30T05:49:28;19.23;;;17.07;;
77571;SDS011;67214;47.454;18.966;2023-04-30T05:51:55;19.75;;;16.75;;
77571;SDS011;67214;47.454;18.966;2023-04-30T05:54:23;16.73;;;14.87;;
77571;SDS011;67214;47.454;18.966;2023-04-30T05:56:50;18.85;;;15.78;;
77571;SDS011;67214;47.454;18.966;2023-04-30T05:59:17;18.60;;;16.67;;
77571;SDS011;67214;47.454;18.966;2023-04-30T06:01:45;19.73;;;16.67;;
77571;SDS011;67214;47.454;18.966;2023-04-30T06:04:12;17.95;;;16.05;;
77571;SDS011;67214;47.454;18.966;2023-04-30T06:06:40;17.20;;;15.25;;
77571;SDS011;67214;47.454;18.966;2023-04-30T06:09:08;17.40;;;14.78;;
77571;SDS011;67214;47.454;18.966;2023-04-30T06:11:36;17.52;;;13.95;;
77571;SDS011;67214;47.454;18.966;2023-04-30T06:14:04;15.78;;;14.18;;
77571;SDS011;67214;47.454;18.966;2023-04-30T06:16:31;17.45;;;15.58;;
77571;SDS011;67214;47.454;18.966;2023-04-30T06:18:59;16.17;;;13.60;;
77571;SDS011;67214;47.454;18.966;2023-04-30T06:21:26;14.73;;;13.10;;
77571;SDS011;67214;47.454;18.966;2023-04-30T06:23:54;14.25;;;12.78;;
77571;SDS011;67214;47.454;18.966;2023-04-30T06:26:21;14.33;;;12.82;;
77571;SDS011;67214;47.454;18.966;2023-04-30T06:28:48;15.38;;;13.05;;
77571;SDS011;67214;47.454;18.966;2023-04-30T06:31:16;13.20;;;11.65;;
77571;SDS011;67214;47.454;18.966;2023-04-30T06:33:43;14.35;;;11.40;;
77571;SDS011;67214;47.454;18.966;2023-04-30T06:36:11;14.00;;;11.12;;
77571;SDS011;67214;47.454;18.966;2023-04-30T06:38:39;12.58;;;10.78;;
77571;SDS011;67214;47.454;18.966;2023-04-30T06:41:07;13.68;;;10.72;;
77571;SDS011;67214;47.454;18.966;2023-04-30T06:43:35;12.73;;;10.55;;
77571;SDS011;67214;47.454;18.966;2023-04-30T06:46:02;11.28;;;10.08;;
77571;SDS011;67214;47.454;18.966;2023-04-30T06:48:31;11.10;;;9.95;;
77571;SDS011;67214;47.454;18.966;2023-04-30T06:50:58;10.08;;;9.05;;
77571;SDS011;67214;47.454;18.966;2023-04-30T06:53:26;9.75;;;8.45;;
77571;SDS011;67214;47.454;18.966;2023-04-30T06:55:53;9.35;;;8.38;;
77571;SDS011;67214;47.454;18.966;2023-04-30T06:58:21;9.00;;;8.13;;
77571;SDS011;67214;47.454;18.966;2023-04-30T07:00:48;11.05;;;8.00;;
77571;SDS011;67214;47.454;18.966;2023-04-30T07:03:16;10.10;;;8.85;;
77571;SDS011;67214;47.454;18.966;2023-04-30T07:05:44;10.65;;;9.55;;
77571;SDS011;67214;47.454;18.966;2023-04-30T07:08:11;10.15;;;9.15;;
77571;SDS011;67214;47.454;18.966;2023-04-30T07:10:39;9.63;;;8.65;;
77571;SDS011;67214;47.454;18.966;2023-04-30T07:13:07;9.03;;;8.13;;
77571;SDS011;67214;47.454;18.966;2023-04-30T07:15:34;10.78;;;8.85;;
77571;SDS011;67214;47.454;18.966;2023-04-30T07:18:03;9.65;;;8.65;;
77571;SDS011;67214;47.454;18.966;2023-04-30T07:20:30;9.15;;;8.25;;
77571;SDS011;67214;47.454;18.966;2023-04-30T07:22:58;9.55;;;8.53;;
77571;SDS011;67214;47.454;18.966;2023-04-30T07:25:25;8.73;;;7.83;;
77571;SDS011;67214;47.454;18.966;2023-04-30T07:27:56;8.95;;;7.42;;
77571;SDS011;67214;47.454;18.966;2023-04-30T07:30:23;8.03;;;6.87;;
77571;SDS011;67214;47.454;18.966;2023-04-30T07:32:50;8.73;;;7.83;;
77571;SDS011;67214;47.454;18.966;2023-04-30T07:35:18;8.43;;;7.62;;
77571;SDS011;67214;47.454;18.966;2023-04-30T07:37:45;9.68;;;7.65;;
77571;SDS011;67214;47.454;18.966;2023-04-30T07:40:13;9.50;;;7.58;;
77571;SDS011;67214;47.454;18.966;2023-04-30T07:42:41;8.18;;;7.37;;
77571;SDS011;67214;47.454;18.966;2023-04-30T07:45:09;6.85;;;6.15;;
77571;SDS011;67214;47.454;18.966;2023-04-30T07:47:37;7.40;;;5.92;;
77571;SDS011;67214;47.454;18.966;2023-04-30T07:50:05;7.95;;;5.42;;
77571;SDS011;67214;47.454;18.966;2023-04-30T07:52:33;7.42;;;5.55;;
77571;SDS011;67214;47.454;18.966;2023-04-30T07:55:01;5.03;;;4.53;;
77571;SDS011;67214;47.454;18.966;2023-04-30T07:57:28;6.97;;;4.80;;
77571;SDS011;67214;47.454;18.966;2023-04-30T07:59:55;5.40;;;4.25;;
77571;SDS011;67214;47.454;18.966;2023-04-30T08:02:23;5.92;;;4.47;;
77571;SDS011;67214;47.454;18.966;2023-04-30T08:04:51;6.22;;;4.70;;
77571;SDS011;67214;47.454;18.966;2023-04-30T08:07:18;5.60;;;4.67;;
77571;SDS011;67214;47.454;18.966;2023-04-30T08:09:46;4.62;;;4.22;;
77571;SDS011;67214;47.454;18.966;2023-04-30T08:12:13;4.58;;;4.17;;
77571;SDS011;67214;47.454;18.966;2023-04-30T08:14:42;6.67;;;5.42;;
77571;SDS011;67214;47.454;18.966;2023-04-30T08:17:10;7.72;;;5.12;;
77571;SDS011;67214;47.454;18.966;2023-04-30T08:19:37;5.10;;;4.60;;
77571;SDS011;67214;47.454;18.966;2023-04-30T08:22:05;4.40;;;4.00;;
77571;SDS011;67214;47.454;18.966;2023-04-30T08:24:32;3.98;;;3.50;;
77571;SDS011;67214;47.454;18.966;2023-04-30T08:27:00;4.25;;;3.70;;
77571;SDS011;67214;47.454;18.966;2023-04-30T08:29:28;5.12;;;3.75;;
77571;SDS011;67214;47.454;18.966;2023-04-30T08:31:56;3.70;;;3.10;;
77571;SDS011;67214;47.454;18.966;2023-04-30T08:34:26;3.62;;;3.20;;
77571;SDS011;67214;47.454;18.966;2023-04-30T08:36:54;4.33;;;3.20;;
77571;SDS011;67214;47.454;18.966;2023-04-30T08:39:21;5.72;;;3.80;;
77571;SDS011;67214;47.454;18.966;2023-04-30T08:41:54;3.72;;;3.20;;
77571;SDS011;67214;47.454;18.966;2023-04-30T08:44:22;3.22;;;2.92;;
77571;SDS011;67214;47.454;18.966;2023-04-30T08:46:56;3.50;;;2.27;;
77571;SDS011;67214;47.454;18.966;2023-04-30T08:49:21;4.10;;;2.90;;
77571;SDS011;67214;47.454;18.966;2023-04-30T08:51:50;2.62;;;2.10;;
77571;SDS011;67214;47.454;18.966;2023-04-30T08:54:18;2.92;;;2.52;;
77571;SDS011;67214;47.454;18.966;2023-04-30T08:56:46;2.87;;;2.35;;
77571;SDS011;67214;47.454;18.966;2023-04-30T08:59:14;2.83;;;2.35;;
77571;SDS011;67214;47.454;18.966;2023-04-30T09:01:41;3.27;;;2.27;;
77571;SDS011;67214;47.454;18.966;2023-04-30T09:04:09;7.25;;;3.25;;
77571;SDS011;67214;47.454;18.966;2023-04-30T09:06:36;3.25;;;2.25;;
77571;SDS011;67214;47.454;18.966;2023-04-30T09:09:14;3.30;;;2.40;;
77571;SDS011;67214;47.454;18.966;2023-04-30T09:11:37;3.83;;;2.33;;
77571;SDS011;67214;47.454;18.966;2023-04-30T09:14:06;3.08;;;2.30;;
77571;SDS011;67214;47.454;18.966;2023-04-30T09:16:45;3.42;;;2.20;;
77571;SDS011;67214;47.454;18.966;2023-04-30T09:19:47;3.67;;;2.40;;
77571;SDS011;67214;47.454;18.966;2023-04-30T09:21:52;3.20;;;2.90;;
77571;SDS011;67214;47.454;18.966;2023-04-30T09:24:20;3.50;;;2.70;;
77571;SDS011;67214;47.454;18.966;2023-04-30T09:26:49;4.00;;;2.30;;
77571;SDS011;67214;47.454;18.966;2023-04-30T09:29:16;2.83;;;2.33;;
77571;SDS011;67214;47.454;18.966;2023-04-30T09:31:44;2.60;;;2.35;;
77571;SDS011;67214;47.454;18.966;2023-04-30T09:34:12;2.70;;;2.50;;
77571;SDS011;67214;47.454;18.966;2023-04-30T09:36:53;4.22;;;2.47;;
77571;SDS011;67214;47.454;18.966;2023-04-30T09:39:21;3.77;;;2.87;;
77571;SDS011;67214;47.454;18.966;2023-04-30T09:41:49;3.45;;;2.98;;
77571;SDS011;67214;47.454;18.966;2023-04-30T09:44:30;4.05;;;2.95;;
77571;SDS011;67214;47.454;18.966;2023-04-30T09:46:59;3.70;;;2.80;;
77571;SDS011;67214;47.454;18.966;2023-04-30T09:49:26;4.75;;;3.50;;
77571;SDS011;67214;47.454;18.966;2023-04-30T09:54:28;3.92;;;3.00;;
77571;SDS011;67214;47.454;18.966;2023-04-30T09:56:57;3.35;;;2.67;;
77571;SDS011;67214;47.454;18.966;2023-04-30T09:59:36;9.23;;;8.33;;
77571;SDS011;67214;47.454;18.966;2023-04-30T10:02:07;4.60;;;3.70;;
77571;SDS011;67214;47.454;18.966;2023-04-30T10:04:36;19.77;;;11.97;;
77571;SDS011;67214;47.454;18.966;2023-04-30T10:07:05;5.72;;;3.98;;
77571;SDS011;67214;47.454;18.966;2023-04-30T10:09:39;13.43;;;11.45;;
77571;SDS011;67214;47.454;18.966;2023-04-30T10:12:14;7.72;;;6.33;;
77571;SDS011;67214;47.454;18.966;2023-04-30T10:14:45;3.37;;;2.62;;
77571;SDS011;67214;47.454;18.966;2023-04-30T10:17:15;5.03;;;4.47;;
77571;SDS011;67214;47.454;18.966;2023-04-30T10:19:47;5.08;;;4.42;;
77571;SDS011;67214;47.454;18.966;2023-04-30T10:22:14;3.12;;;2.47;;
77571;SDS011;67214;47.454;18.966;2023-04-30T10:24:42;6.03;;;4.50;;
77571;SDS011;67214;47.454;18.966;2023-04-30T10:27:11;3.87;;;2.77;;
77571;SDS011;67214;47.454;18.966;2023-04-30T10:29:39;3.45;;;2.75;;
77571;SDS011;67214;47.454;18.966;2023-04-30T10:32:09;3.60;;;2.58;;
77571;SDS011;67214;47.454;18.966;2023-04-30T10:37:37;7.83;;;3.55;;
77571;SDS011;67214;47.454;18.966;2023-04-30T10:40:15;4.30;;;3.05;;
77571;SDS011;67214;47.454;18.966;2023-04-30T10:42:45;3.72;;;2.98;;
77571;SDS011;67214;47.454;18.966;2023-04-30T10:45:17;4.67;;;2.83;;
77571;SDS011;67214;47.454;18.966;2023-04-30T10:47:45;5.47;;;3.30;;
77571;SDS011;67214;47.454;18.966;2023-04-30T10:50:12;2.80;;;2.40;;
77571;SDS011;67214;47.454;18.966;2023-04-30T10:52:40;3.75;;;2.50;;
77571;SDS011;67214;47.454;18.966;2023-04-30T10:55:09;3.52;;;2.42;;
77571;SDS011;67214;47.454;18.966;2023-04-30T10:57:40;2.58;;;2.10;;
77571;SDS011;67214;47.454;18.966;2023-04-30T11:00:16;3.77;;;2.98;;
77571;SDS011;67214;47.454;18.966;2023-04-30T11:02:41;3.02;;;2.55;;
77571;SDS011;67214;47.454;18.966;2023-04-30T11:05:10;3.12;;;2.17;;
77571;SDS011;67214;47.454;18.966;2023-04-30T11:07:49;7.80;;;4.40;;
77571;SDS011;67214;47.454;18.966;2023-04-30T11:10:21;3.37;;;2.75;;
77571;SDS011;67214;47.454;18.966;2023-04-30T11:12:51;3.85;;;2.80;;
77571;SDS011;67214;47.454;18.966;2023-04-30T11:15:20;4.37;;;2.40;;
77571;SDS011;67214;47.454;18.966;2023-04-30T11:17:56;2.37;;;2.02;;
77571;SDS011;67214;47.454;18.966;2023-04-30T11:20:27;4.37;;;2.45;;
77571;SDS011;67214;47.454;18.966;2023-04-30T11:23:13;2.67;;;2.00;;
77571;SDS011;67214;47.454;18.966;2023-04-30T11:25:40;3.30;;;2.02;;
77571;SDS011;67214;47.454;18.966;2023-04-30T11:28:17;3.52;;;2.08;;
77571;SDS011;67214;47.454;18.966;2023-04-30T11:30:52;3.20;;;2.20;;
77571;SDS011;67214;47.454;18.966;2023-04-30T11:33:21;3.02;;;2.20;;
77571;SDS011;67214;47.454;18.966;2023-04-30T11:35:50;2.80;;;2.15;;
77571;SDS011;67214;47.454;18.966;2023-04-30T11:38:23;2.40;;;2.12;;
77571;SDS011;67214;47.454;18.966;2023-04-30T11:40:54;4.42;;;2.27;;
77571;SDS011;67214;47.454;18.966;2023-04-30T11:43:24;2.60;;;2.30;;
77571;SDS011;67214;47.454;18.966;2023-04-30T11:48:40;2.42;;;1.82;;
77571;SDS011;67214;47.454;18.966;2023-04-30T11:51:15;2.60;;;1.92;;
77571;SDS011;67214;47.454;18.966;2023-04-30T11:53:48;2.02;;;1.80;;
77571;SDS011;67214;47.454;18.966;2023-04-30T11:56:17;3.00;;;2.30;;
77571;SDS011;67214;47.454;18.966;2023-04-30T11:58:46;4.60;;;2.25;;
77571;SDS011;67214;47.454;18.966;2023-04-30T12:01:15;2.40;;;1.90;;
77571;SDS011;67214;47.454;18.966;2023-04-30T12:03:49;1.75;;;1.55;;
77571;SDS011;67214;47.454;18.966;2023-04-30T12:06:20;2.25;;;1.75;;
77571;SDS011;67214;47.454;18.966;2023-04-30T12:08:50;2.40;;;1.85;;
77571;SDS011;67214;47.454;18.966;2023-04-30T12:11:20;2.37;;;2.00;;
77571;SDS011;67214;47.454;18.966;2023-04-30T12:13:53;3.15;;;1.82;;
77571;SDS011;67214;47.454;18.966;2023-04-30T12:16:23;2.20;;;1.65;;
77571;SDS011;67214;47.454;18.966;2023-04-30T12:18:50;3.08;;;1.87;;
77571;SDS011;67214;47.454;18.966;2023-04-30T12:21:19;3.00;;;1.72;;
77571;SDS011;67214;47.454;18.966;2023-04-30T12:23:48;2.90;;;1.87;;
77571;SDS011;67214;47.454;18.966;2023-04-30T12:26:15;2.10;;;1.60;;
77571;SDS011;67214;47.454;18.966;2023-04-30T12:28:45;4.15;;;1.60;;
77571;SDS011;67214;47.454;18.966;2023-04-30T12:31:13;2.22;;;1.80;;
77571;SDS011;67214;47.454;18.966;2023-04-30T12:33:43;2.17;;;1.82;;
77571;SDS011;67214;47.454;18.966;2023-04-30T12:36:12;2.30;;;1.70;;
77571;SDS011;67214;47.454;18.966;2023-04-30T12:38:42;2.05;;;1.70;;
77571;SDS011;67214;47.454;18.966;2023-04-30T12:41:13;1.85;;;1.62;;
77571;SDS011;67214;47.454;18.966;2023-04-30T12:43:41;2.40;;;1.72;;
77571;SDS011;67214;47.454;18.966;2023-04-30T12:46:09;2.10;;;1.55;;
77571;SDS011;67214;47.454;18.966;2023-04-30T12:48:43;2.20;;;1.52;;
77571;SDS011;67214;47.454;18.966;2023-04-30T12:51:10;1.73;;;1.40;;
77571;SDS011;67214;47.454;18.966;2023-04-30T12:53:44;3.37;;;1.30;;
77571;SDS011;67214;47.454;18.966;2023-04-30T12:56:13;2.22;;;1.82;;
77571;SDS011;67214;47.454;18.966;2023-04-30T12:58:42;1.65;;;1.40;;
77571;SDS011;67214;47.454;18.966;2023-04-30T13:01:15;5.15;;;1.80;;
77571;SDS011;67214;47.454;18.966;2023-04-30T13:03:49;2.37;;;1.80;;
77571;SDS011;67214;47.454;18.966;2023-04-30T13:06:17;1.75;;;1.50;;
77571;SDS011;67214;47.454;18.966;2023-04-30T13:08:47;2.58;;;1.47;;
77571;SDS011;67214;47.454;18.966;2023-04-30T13:11:15;2.42;;;1.98;;
77571;SDS011;67214;47.454;18.966;2023-04-30T13:13:42;2.72;;;1.50;;
77571;SDS011;67214;47.454;18.966;2023-04-30T13:16:09;1.70;;;1.40;;
77571;SDS011;67214;47.454;18.966;2023-04-30T13:18:37;1.90;;;1.52;;
77571;SDS011;67214;47.454;18.966;2023-04-30T13:21:04;2.42;;;1.87;;
77571;SDS011;67214;47.454;18.966;2023-04-30T13:23:32;1.60;;;1.40;;
77571;SDS011;67214;47.454;18.966;2023-04-30T13:26:00;1.85;;;1.42;;
77571;SDS011;67214;47.454;18.966;2023-04-30T13:28:27;3.05;;;1.25;;
77571;SDS011;67214;47.454;18.966;2023-04-30T13:30:54;1.70;;;1.15;;
77571;SDS011;67214;47.454;18.966;2023-04-30T13:33:22;1.80;;;1.30;;
77571;SDS011;67214;47.454;18.966;2023-04-30T13:35:49;2.05;;;1.20;;
77571;SDS011;67214;47.454;18.966;2023-04-30T13:38:17;2.92;;;1.57;;
77571;SDS011;67214;47.454;18.966;2023-04-30T13:40:44;1.75;;;1.30;;
77571;SDS011;67214;47.454;18.966;2023-04-30T13:43:12;1.87;;;1.30;;
77571;SDS011;67214;47.454;18.966;2023-04-30T13:45:39;1.67;;;1.30;;
77571;SDS011;67214;47.454;18.966;2023-04-30T13:48:06;1.57;;;1.25;;
77571;SDS011;67214;47.454;18.966;2023-04-30T13:50:34;2.62;;;1.35;;
77571;SDS011;67214;47.454;18.966;2023-04-30T13:53:01;1.55;;;1.25;;
77571;SDS011;67214;47.454;18.966;2023-04-30T13:55:29;4.58;;;1.75;;
77571;SDS011;67214;47.454;18.966;2023-04-30T13:57:57;5.00;;;1.50;;
77571;SDS011;67214;47.454;18.966;2023-04-30T14:00:24;1.45;;;1.35;;
77571;SDS011;67214;47.454;18.966;2023-04-30T14:02:52;1.98;;;1.50;;
77571;SDS011;67214;47.454;18.966;2023-04-30T14:05:20;3.40;;;1.90;;
77571;SDS011;67214;47.454;18.966;2023-04-30T14:07:48;1.52;;;1.40;;
77571;SDS011;67214;47.454;18.966;2023-04-30T14:10:15;1.98;;;1.57;;
77571;SDS011;67214;47.454;18.966;2023-04-30T14:12:43;1.70;;;1.30;;
77571;SDS011;67214;47.454;18.966;2023-04-30T14:15:11;2.83;;;1.35;;
77571;SDS011;67214;47.454;18.966;2023-04-30T14:17:39;2.33;;;1.47;;
77571;SDS011;67214;47.454;18.966;2023-04-30T14:20:06;1.67;;;1.32;;
77571;SDS011;67214;47.454;18.966;2023-04-30T14:22:35;1.52;;;1.20;;
77571;SDS011;67214;47.454;18.966;2023-04-30T14:25:03;1.82;;;1.20;;
77571;SDS011;67214;47.454;18.966;2023-04-30T14:27:32;1.47;;;1.35;;
77571;SDS011;67214;47.454;18.966;2023-04-30T14:29:59;3.17;;;1.27;;
77571;SDS011;67214;47.454;18.966;2023-04-30T14:32:28;1.62;;;1.10;;
77571;SDS011;67214;47.454;18.966;2023-04-30T14:34:55;1.60;;;1.10;;
77571;SDS011;67214;47.454;18.966;2023-04-30T14:37:23;1.65;;;1.35;;
77571;SDS011;67214;47.454;18.966;2023-04-30T14:39:50;3.00;;;1.42;;
77571;SDS011;67214;47.454;18.966;2023-04-30T14:42:18;1.37;;;1.27;;
77571;SDS011;67214;47.454;18.966;2023-04-30T14:44:45;1.75;;;1.45;;
77571;SDS011;67214;47.454;18.966;2023-04-30T14:47:12;2.92;;;1.32;;
77571;SDS011;67214;47.454;18.966;2023-04-30T14:49:40;4.20;;;1.50;;
77571;SDS011;67214;47.454;18.966;2023-04-30T14:52:07;1.30;;;1.20;;
77571;SDS011;67214;47.454;18.966;2023-04-30T14:54:35;1.55;;;1.10;;
77571;SDS011;67214;47.454;18.966;2023-04-30T14:57:03;1.95;;;1.27;;